sensor_id;sensor_type;location;lat;lon;timestamp;P1;durP1;ratioP1;P2;durP2;ratioP2
1975;SDS011;988;48.016;7.800;2022-10-16T00:01:12;10.27;;;9.57;;
1975;SDS011;988;48.016;7.800;2022-10-16T00:03:39;9.70;;;9.03;;
1975;SDS011;988;48.016;7.800;2022-10-16T00:06:07;8.97;;;8.47;;
1975;SDS011;988;48.016;7.800;2022-10-16T00:08:33;8.93;;;8.40;;
1975;SDS011;988;48.016;7.800;2022-10-16T00:11:00;8.87;;;8.20;;
1975;SDS011;988;48.016;7.800;2022-10-16T00:13:37;8.80;;;8.30;;
1975;SDS011;988;48.016;7.800;2022-10-16T00:16:04;8.90;;;8.30;;
1975;SDS011;988;48.016;7.800;2022-10-16T00:18:30;9.20;;;8.50;;
1975;SDS011;988;48.016;7.800;2022-10-16T00:21:01;10.47;;;9.77;;
1975;SDS011;988;48.016;7.800;2022-10-16T00:23:31;9.80;;;9.13;;
1975;SDS011;988;48.016;7.800;2022-10-16T00:25:58;9.43;;;8.90;;
1975;SDS011;988;48.016;7.800;2022-10-16T00:28:26;9.33;;;8.83;;
1975;SDS011;988;48.016;7.800;2022-10-16T00:30:51;8.73;;;8.33;;
1975;SDS011;988;48.016;7.800;2022-10-16T00:33:17;10.83;;;8.50;;
1975;SDS011;988;48.016;7.800;2022-10-16T00:35:43;9.93;;;9.00;;
1975;SDS011;988;48.016;7.800;2022-10-16T00:38:09;9.30;;;8.43;;
1975;SDS011;988;48.016;7.800;2022-10-16T00:40:35;13.10;;;8.47;;
1975;SDS011;988;48.016;7.800;2022-10-16T00:43:00;9.13;;;8.40;;
1975;SDS011;988;48.016;7.800;2022-10-16T00:45:26;9.10;;;8.40;;
1975;SDS011;988;48.016;7.800;2022-10-16T00:47:52;9.03;;;8.47;;
1975;SDS011;988;48.016;7.800;2022-10-16T00:50:30;9.87;;;9.17;;
1975;SDS011;988;48.016;7.800;2022-10-16T00:52:58;10.57;;;8.50;;
1975;SDS011;988;48.016;7.800;2022-10-16T00:55:25;9.10;;;8.33;;
1975;SDS011;988;48.016;7.800;2022-10-16T00:57:52;8.60;;;7.80;;
1975;SDS011;988;48.016;7.800;2022-10-16T01:00:23;8.50;;;7.80;;
1975;SDS011;988;48.016;7.800;2022-10-16T01:02:55;7.83;;;7.00;;
1975;SDS011;988;48.016;7.800;2022-10-16T01:05:22;7.60;;;6.83;;
1975;SDS011;988;48.016;7.800;2022-10-16T01:08:08;6.83;;;6.30;;
1975;SDS011;988;48.016;7.800;2022-10-16T01:11:01;6.60;;;6.20;;
1975;SDS011;988;48.016;7.800;2022-10-16T01:13:38;7.10;;;6.60;;
1975;SDS011;988;48.016;7.800;2022-10-16T01:16:09;7.00;;;6.50;;
1975;SDS011;988;48.016;7.800;2022-10-16T01:18:45;6.53;;;6.03;;
1975;SDS011;988;48.016;7.800;2022-10-16T01:21:22;6.70;;;6.10;;
1975;SDS011;988;48.016;7.800;2022-10-16T01:31:57;6.97;;;5.90;;
1975;SDS011;988;48.016;7.800;2022-10-16T01:34:32;10.33;;;5.47;;
1975;SDS011;988;48.016;7.800;2022-10-16T01:37:15;6.80;;;5.37;;
1975;SDS011;988;48.016;7.800;2022-10-16T01:39:47;5.70;;;5.40;;
1975;SDS011;988;48.016;7.800;2022-10-16T01:42:20;6.23;;;5.50;;
1975;SDS011;988;48.016;7.800;2022-10-16T01:44:48;10.53;;;6.00;;
1975;SDS011;988;48.016;7.800;2022-10-16T01:47:16;7.10;;;6.50;;
1975;SDS011;988;48.016;7.800;2022-10-16T01:49:44;8.17;;;6.00;;
1975;SDS011;988;48.016;7.800;2022-10-16T01:52:13;6.77;;;6.10;;
1975;SDS011;988;48.016;7.800;2022-10-16T01:54:43;5.97;;;5.27;;
1975;SDS011;988;48.016;7.800;2022-10-16T01:57:12;5.43;;;5.00;;
1975;SDS011;988;48.016;7.800;2022-10-16T01:59:42;7.53;;;5.07;;
1975;SDS011;988;48.016;7.800;2022-10-16T02:02:10;5.97;;;5.47;;
1975;SDS011;988;48.016;7.800;2022-10-16T02:04:39;7.50;;;5.60;;
1975;SDS011;988;48.016;7.800;2022-10-16T02:07:08;6.23;;;5.73;;
1975;SDS011;988;48.016;7.800;2022-10-16T02:09:35;6.13;;;5.63;;
1975;SDS011;988;48.016;7.800;2022-10-16T02:12:03;6.43;;;5.93;;
1975;SDS011;988;48.016;7.800;2022-10-16T02:14:36;6.67;;;6.00;;
1975;SDS011;988;48.016;7.800;2022-10-16T02:17:15;6.73;;;6.23;;
1975;SDS011;988;48.016;7.800;2022-10-16T02:19:42;6.90;;;6.20;;
1975;SDS011;988;48.016;7.800;2022-10-16T02:22:10;6.60;;;6.30;;
1975;SDS011;988;48.016;7.800;2022-10-16T02:27:38;11.13;;;6.83;;
1975;SDS011;988;48.016;7.800;2022-10-16T02:32:49;7.77;;;7.07;;
1975;SDS011;988;48.016;7.800;2022-10-16T02:35:17;7.83;;;7.33;;
1975;SDS011;988;48.016;7.800;2022-10-16T02:37:44;9.33;;;7.10;;
1975;SDS011;988;48.016;7.800;2022-10-16T02:40:11;6.73;;;6.43;;
1975;SDS011;988;48.016;7.800;2022-10-16T02:42:38;7.70;;;7.20;;
1975;SDS011;988;48.016;7.800;2022-10-16T02:45:05;7.07;;;6.67;;
1975;SDS011;988;48.016;7.800;2022-10-16T02:47:32;7.40;;;6.70;;
1975;SDS011;988;48.016;7.800;2022-10-16T02:49:58;8.90;;;7.00;;
1975;SDS011;988;48.016;7.800;2022-10-16T02:52:24;6.67;;;6.37;;
1975;SDS011;988;48.016;7.800;2022-10-16T02:54:50;11.50;;;7.13;;
1975;SDS011;988;48.016;7.800;2022-10-16T02:57:16;10.10;;;7.03;;
1975;SDS011;988;48.016;7.800;2022-10-16T02:59:41;8.93;;;7.00;;
1975;SDS011;988;48.016;7.800;2022-10-16T03:02:07;7.30;;;6.60;;
1975;SDS011;988;48.016;7.800;2022-10-16T03:04:32;7.00;;;6.70;;
1975;SDS011;988;48.016;7.800;2022-10-16T03:06:58;9.90;;;7.03;;
1975;SDS011;988;48.016;7.800;2022-10-16T03:09:24;7.67;;;6.87;;
1975;SDS011;988;48.016;7.800;2022-10-16T03:11:49;7.13;;;6.63;;
1975;SDS011;988;48.016;7.800;2022-10-16T03:14:15;7.13;;;6.73;;
1975;SDS011;988;48.016;7.800;2022-10-16T03:16:40;7.80;;;7.37;;
1975;SDS011;988;48.016;7.800;2022-10-16T03:19:06;7.40;;;6.90;;
1975;SDS011;988;48.016;7.800;2022-10-16T03:21:31;8.00;;;7.30;;
1975;SDS011;988;48.016;7.800;2022-10-16T03:23:57;11.30;;;7.20;;
1975;SDS011;988;48.016;7.800;2022-10-16T03:26:22;7.67;;;7.27;;
1975;SDS011;988;48.016;7.800;2022-10-16T03:28:48;8.23;;;7.50;;
1975;SDS011;988;48.016;7.800;2022-10-16T03:31:13;7.83;;;7.10;;
1975;SDS011;988;48.016;7.800;2022-10-16T03:33:39;13.40;;;7.63;;
1975;SDS011;988;48.016;7.800;2022-10-16T03:36:05;9.20;;;7.27;;
1975;SDS011;988;48.016;7.800;2022-10-16T03:38:31;6.97;;;6.40;;
1975;SDS011;988;48.016;7.800;2022-10-16T03:40:57;6.47;;;5.73;;
1975;SDS011;988;48.016;7.800;2022-10-16T03:43:22;6.27;;;5.80;;
1975;SDS011;988;48.016;7.800;2022-10-16T03:45:49;6.80;;;5.80;;
1975;SDS011;988;48.016;7.800;2022-10-16T03:48:15;7.77;;;5.53;;
1975;SDS011;988;48.016;7.800;2022-10-16T03:50:41;8.23;;;5.80;;
1975;SDS011;988;48.016;7.800;2022-10-16T03:53:07;6.43;;;5.83;;
1975;SDS011;988;48.016;7.800;2022-10-16T03:55:32;8.30;;;7.70;;
1975;SDS011;988;48.016;7.800;2022-10-16T03:57:58;11.13;;;7.87;;
1975;SDS011;988;48.016;7.800;2022-10-16T04:00:23;9.53;;;7.07;;
1975;SDS011;988;48.016;7.800;2022-10-16T04:02:49;7.47;;;6.83;;
1975;SDS011;988;48.016;7.800;2022-10-16T04:05:15;8.90;;;6.53;;
1975;SDS011;988;48.016;7.800;2022-10-16T04:07:40;8.13;;;6.20;;
1975;SDS011;988;48.016;7.800;2022-10-16T04:10:06;6.93;;;6.37;;
1975;SDS011;988;48.016;7.800;2022-10-16T04:12:31;6.70;;;6.40;;
1975;SDS011;988;48.016;7.800;2022-10-16T04:14:57;7.00;;;6.37;;
1975;SDS011;988;48.016;7.800;2022-10-16T04:17:23;7.30;;;7.00;;
1975;SDS011;988;48.016;7.800;2022-10-16T04:19:48;8.07;;;7.57;;
1975;SDS011;988;48.016;7.800;2022-10-16T04:22:14;8.20;;;7.60;;
1975;SDS011;988;48.016;7.800;2022-10-16T04:24:39;8.10;;;7.70;;
1975;SDS011;988;48.016;7.800;2022-10-16T04:27:05;9.60;;;9.10;;
1975;SDS011;988;48.016;7.800;2022-10-16T04:29:30;9.10;;;8.50;;
1975;SDS011;988;48.016;7.800;2022-10-16T04:31:56;10.37;;;9.20;;
1975;SDS011;988;48.016;7.800;2022-10-16T04:34:21;9.80;;;9.00;;
1975;SDS011;988;48.016;7.800;2022-10-16T04:36:48;9.63;;;9.20;;
1975;SDS011;988;48.016;7.800;2022-10-16T04:39:14;9.23;;;8.83;;
1975;SDS011;988;48.016;7.800;2022-10-16T04:41:40;9.80;;;9.20;;
1975;SDS011;988;48.016;7.800;2022-10-16T04:44:05;9.07;;;8.50;;
1975;SDS011;988;48.016;7.800;2022-10-16T04:46:31;10.00;;;9.30;;
1975;SDS011;988;48.016;7.800;2022-10-16T04:48:56;9.60;;;9.00;;
1975;SDS011;988;48.016;7.800;2022-10-16T04:51:22;9.33;;;8.73;;
1975;SDS011;988;48.016;7.800;2022-10-16T04:53:48;9.53;;;8.93;;
1975;SDS011;988;48.016;7.800;2022-10-16T04:56:13;9.90;;;8.90;;
1975;SDS011;988;48.016;7.800;2022-10-16T04:58:40;8.90;;;8.40;;
1975;SDS011;988;48.016;7.800;2022-10-16T05:01:05;8.80;;;8.40;;
1975;SDS011;988;48.016;7.800;2022-10-16T05:03:31;9.27;;;8.57;;
1975;SDS011;988;48.016;7.800;2022-10-16T05:05:57;9.53;;;8.87;;
1975;SDS011;988;48.016;7.800;2022-10-16T05:08:22;9.67;;;8.83;;
1975;SDS011;988;48.016;7.800;2022-10-16T05:10:48;10.03;;;9.03;;
1975;SDS011;988;48.016;7.800;2022-10-16T05:13:13;9.30;;;8.80;;
1975;SDS011;988;48.016;7.800;2022-10-16T05:15:39;9.23;;;8.50;;
1975;SDS011;988;48.016;7.800;2022-10-16T05:18:05;9.33;;;8.63;;
1975;SDS011;988;48.016;7.800;2022-10-16T05:20:30;8.00;;;7.60;;
1975;SDS011;988;48.016;7.800;2022-10-16T05:22:56;8.43;;;7.63;;
1975;SDS011;988;48.016;7.800;2022-10-16T05:25:21;8.20;;;7.40;;
1975;SDS011;988;48.016;7.800;2022-10-16T05:27:47;8.20;;;7.70;;
1975;SDS011;988;48.016;7.800;2022-10-16T05:30:13;9.10;;;6.87;;
1975;SDS011;988;48.016;7.800;2022-10-16T05:32:40;7.67;;;6.90;;
1975;SDS011;988;48.016;7.800;2022-10-16T05:35:05;7.60;;;7.00;;
1975;SDS011;988;48.016;7.800;2022-10-16T05:37:31;11.97;;;7.97;;
1975;SDS011;988;48.016;7.800;2022-10-16T05:39:57;8.83;;;7.63;;
1975;SDS011;988;48.016;7.800;2022-10-16T05:42:22;8.83;;;8.10;;
1975;SDS011;988;48.016;7.800;2022-10-16T05:44:48;8.70;;;8.00;;
1975;SDS011;988;48.016;7.800;2022-10-16T05:47:14;9.50;;;8.70;;
1975;SDS011;988;48.016;7.800;2022-10-16T05:49:39;7.93;;;7.53;;
1975;SDS011;988;48.016;7.800;2022-10-16T05:52:05;8.13;;;7.43;;
1975;SDS011;988;48.016;7.800;2022-10-16T05:54:31;13.83;;;8.70;;
1975;SDS011;988;48.016;7.800;2022-10-16T05:56:56;10.83;;;8.47;;
1975;SDS011;988;48.016;7.800;2022-10-16T05:59:22;11.30;;;8.73;;
1975;SDS011;988;48.016;7.800;2022-10-16T06:01:48;9.80;;;9.10;;
1975;SDS011;988;48.016;7.800;2022-10-16T06:04:14;9.00;;;8.50;;
1975;SDS011;988;48.016;7.800;2022-10-16T06:06:39;10.03;;;9.33;;
1975;SDS011;988;48.016;7.800;2022-10-16T06:09:05;9.70;;;9.20;;
1975;SDS011;988;48.016;7.800;2022-10-16T06:11:31;10.17;;;9.50;;
1975;SDS011;988;48.016;7.800;2022-10-16T06:13:58;10.17;;;9.67;;
1975;SDS011;988;48.016;7.800;2022-10-16T06:16:31;10.77;;;10.00;;
1975;SDS011;988;48.016;7.800;2022-10-16T06:18:59;11.53;;;10.73;;
1975;SDS011;988;48.016;7.800;2022-10-16T06:21:25;11.13;;;10.03;;
1975;SDS011;988;48.016;7.800;2022-10-16T06:23:52;10.90;;;9.87;;
1975;SDS011;988;48.016;7.800;2022-10-16T06:26:20;11.47;;;10.47;;
1975;SDS011;988;48.016;7.800;2022-10-16T06:28:47;10.20;;;9.70;;
1975;SDS011;988;48.016;7.800;2022-10-16T06:31:14;12.63;;;9.70;;
1975;SDS011;988;48.016;7.800;2022-10-16T06:33:40;12.80;;;9.80;;
1975;SDS011;988;48.016;7.800;2022-10-16T06:36:07;11.07;;;10.37;;
1975;SDS011;988;48.016;7.800;2022-10-16T06:38:35;11.53;;;9.83;;
1975;SDS011;988;48.016;7.800;2022-10-16T06:41:01;10.57;;;9.90;;
1975;SDS011;988;48.016;7.800;2022-10-16T06:43:28;12.50;;;11.40;;
1975;SDS011;988;48.016;7.800;2022-10-16T06:45:57;10.57;;;9.77;;
1975;SDS011;988;48.016;7.800;2022-10-16T06:48:25;11.40;;;10.60;;
1975;SDS011;988;48.016;7.800;2022-10-16T06:50:58;10.47;;;9.87;;
1975;SDS011;988;48.016;7.800;2022-10-16T06:53:25;12.40;;;11.70;;
1975;SDS011;988;48.016;7.800;2022-10-16T06:55:52;15.20;;;11.93;;
1975;SDS011;988;48.016;7.800;2022-10-16T06:58:17;12.50;;;11.60;;
1975;SDS011;988;48.016;7.800;2022-10-16T07:00:43;12.30;;;11.50;;
1975;SDS011;988;48.016;7.800;2022-10-16T07:03:09;18.73;;;11.30;;
1975;SDS011;988;48.016;7.800;2022-10-16T07:05:41;13.00;;;11.63;;
1975;SDS011;988;48.016;7.800;2022-10-16T07:08:08;12.50;;;11.80;;
1975;SDS011;988;48.016;7.800;2022-10-16T07:10:34;12.30;;;11.50;;
1975;SDS011;988;48.016;7.800;2022-10-16T07:13:00;12.60;;;11.57;;
1975;SDS011;988;48.016;7.800;2022-10-16T07:15:26;12.50;;;11.80;;
1975;SDS011;988;48.016;7.800;2022-10-16T07:17:52;13.00;;;12.13;;
1975;SDS011;988;48.016;7.800;2022-10-16T07:20:17;23.50;;;20.90;;
1975;SDS011;988;48.016;7.800;2022-10-16T07:22:43;21.23;;;17.53;;
1975;SDS011;988;48.016;7.800;2022-10-16T07:25:09;13.50;;;12.40;;
1975;SDS011;988;48.016;7.800;2022-10-16T07:27:35;19.20;;;16.80;;
1975;SDS011;988;48.016;7.800;2022-10-16T07:30:01;14.03;;;13.07;;
1975;SDS011;988;48.016;7.800;2022-10-16T07:32:27;13.20;;;11.93;;
1975;SDS011;988;48.016;7.800;2022-10-16T07:34:53;23.73;;;12.40;;
1975;SDS011;988;48.016;7.800;2022-10-16T07:37:20;14.13;;;13.13;;
1975;SDS011;988;48.016;7.800;2022-10-16T07:39:46;15.97;;;14.80;;
1975;SDS011;988;48.016;7.800;2022-10-16T07:42:12;17.10;;;15.67;;
1975;SDS011;988;48.016;7.800;2022-10-16T07:44:37;17.10;;;15.73;;
1975;SDS011;988;48.016;7.800;2022-10-16T07:47:03;18.87;;;17.17;;
1975;SDS011;988;48.016;7.800;2022-10-16T07:49:28;18.13;;;16.90;;
1975;SDS011;988;48.016;7.800;2022-10-16T07:51:54;18.67;;;17.40;;
1975;SDS011;988;48.016;7.800;2022-10-16T07:54:20;18.53;;;17.50;;
1975;SDS011;988;48.016;7.800;2022-10-16T07:56:45;21.40;;;20.10;;
1975;SDS011;988;48.016;7.800;2022-10-16T07:59:11;22.40;;;21.10;;
1975;SDS011;988;48.016;7.800;2022-10-16T08:01:36;22.13;;;20.93;;
1975;SDS011;988;48.016;7.800;2022-10-16T08:04:02;23.13;;;21.23;;
1975;SDS011;988;48.016;7.800;2022-10-16T08:06:28;22.50;;;20.73;;
1975;SDS011;988;48.016;7.800;2022-10-16T08:08:54;21.57;;;20.30;;
1975;SDS011;988;48.016;7.800;2022-10-16T08:11:20;18.50;;;17.40;;
1975;SDS011;988;48.016;7.800;2022-10-16T08:13:46;19.10;;;18.20;;
1975;SDS011;988;48.016;7.800;2022-10-16T08:16:11;40.03;;;36.77;;
1975;SDS011;988;48.016;7.800;2022-10-16T08:18:37;20.77;;;19.57;;
1975;SDS011;988;48.016;7.800;2022-10-16T08:21:05;22.67;;;21.23;;
1975;SDS011;988;48.016;7.800;2022-10-16T08:23:32;21.57;;;20.37;;
1975;SDS011;988;48.016;7.800;2022-10-16T08:26:02;22.20;;;20.90;;
1975;SDS011;988;48.016;7.800;2022-10-16T08:28:29;24.30;;;22.90;;
1975;SDS011;988;48.016;7.800;2022-10-16T08:30:55;24.43;;;23.03;;
1975;SDS011;988;48.016;7.800;2022-10-16T08:33:22;22.70;;;21.30;;
1975;SDS011;988;48.016;7.800;2022-10-16T08:35:54;21.80;;;20.40;;
1975;SDS011;988;48.016;7.800;2022-10-16T08:38:19;23.17;;;21.70;;
1975;SDS011;988;48.016;7.800;2022-10-16T08:40:45;22.80;;;21.40;;
1975;SDS011;988;48.016;7.800;2022-10-16T08:45:51;24.03;;;22.10;;
1975;SDS011;988;48.016;7.800;2022-10-16T08:51:21;23.33;;;22.03;;
1975;SDS011;988;48.016;7.800;2022-10-16T08:56:17;28.63;;;26.83;;
1975;SDS011;988;48.016;7.800;2022-10-16T08:58:43;23.33;;;21.30;;
1975;SDS011;988;48.016;7.800;2022-10-16T09:01:12;22.63;;;21.10;;
1975;SDS011;988;48.016;7.800;2022-10-16T09:06:47;23.00;;;21.53;;
1975;SDS011;988;48.016;7.800;2022-10-16T09:22:48;24.67;;;22.80;;
1975;SDS011;988;48.016;7.800;2022-10-16T09:25:17;23.83;;;22.43;;
1975;SDS011;988;48.016;7.800;2022-10-16T09:27:46;24.73;;;23.03;;
1975;SDS011;988;48.016;7.800;2022-10-16T09:30:18;22.83;;;21.60;;
1975;SDS011;988;48.016;7.800;2022-10-16T09:32:45;25.07;;;23.67;;
1975;SDS011;988;48.016;7.800;2022-10-16T09:35:16;26.40;;;24.40;;
1975;SDS011;988;48.016;7.800;2022-10-16T09:37:45;26.10;;;24.47;;
1975;SDS011;988;48.016;7.800;2022-10-16T09:40:13;24.93;;;23.53;;
1975;SDS011;988;48.016;7.800;2022-10-16T09:42:56;26.20;;;24.20;;
1975;SDS011;988;48.016;7.800;2022-10-16T09:45:26;24.67;;;22.80;;
1975;SDS011;988;48.016;7.800;2022-10-16T09:47:52;25.63;;;24.03;;
1975;SDS011;988;48.016;7.800;2022-10-16T09:50:28;25.40;;;24.00;;
1975;SDS011;988;48.016;7.800;2022-10-16T09:53:04;25.10;;;23.70;;
1975;SDS011;988;48.016;7.800;2022-10-16T09:55:30;26.00;;;24.40;;
1975;SDS011;988;48.016;7.800;2022-10-16T09:57:55;25.87;;;24.47;;
1975;SDS011;988;48.016;7.800;2022-10-16T10:00:21;28.17;;;26.43;;
1975;SDS011;988;48.016;7.800;2022-10-16T10:02:48;24.20;;;22.90;;
1975;SDS011;988;48.016;7.800;2022-10-16T10:05:19;24.70;;;23.30;;
1975;SDS011;988;48.016;7.800;2022-10-16T10:07:52;24.27;;;22.77;;
1975;SDS011;988;48.016;7.800;2022-10-16T10:10:24;24.90;;;23.40;;
1975;SDS011;988;48.016;7.800;2022-10-16T10:12:51;27.77;;;26.03;;
1975;SDS011;988;48.016;7.800;2022-10-16T10:15:17;25.13;;;23.83;;
1975;SDS011;988;48.016;7.800;2022-10-16T10:17:48;26.53;;;25.03;;
1975;SDS011;988;48.016;7.800;2022-10-16T10:20:23;25.70;;;24.30;;
1975;SDS011;988;48.016;7.800;2022-10-16T10:22:55;24.40;;;23.03;;
1975;SDS011;988;48.016;7.800;2022-10-16T10:28:30;24.60;;;23.10;;
1975;SDS011;988;48.016;7.800;2022-10-16T10:31:10;26.27;;;24.60;;
1975;SDS011;988;48.016;7.800;2022-10-16T10:47:01;25.80;;;24.10;;
1975;SDS011;988;48.016;7.800;2022-10-16T10:52:07;27.27;;;25.77;;
1975;SDS011;988;48.016;7.800;2022-10-16T10:55:02;25.30;;;23.90;;
1975;SDS011;988;48.016;7.800;2022-10-16T10:57:41;26.93;;;25.43;;
1975;SDS011;988;48.016;7.800;2022-10-16T11:06:04;25.37;;;23.97;;
1975;SDS011;988;48.016;7.800;2022-10-16T11:08:39;24.77;;;23.37;;
1975;SDS011;988;48.016;7.800;2022-10-16T11:11:42;24.20;;;22.90;;
1975;SDS011;988;48.016;7.800;2022-10-16T11:14:17;24.30;;;22.90;;
1975;SDS011;988;48.016;7.800;2022-10-16T11:29:59;24.53;;;23.20;;
1975;SDS011;988;48.016;7.800;2022-10-16T11:32:34;25.00;;;23.43;;
1975;SDS011;988;48.016;7.800;2022-10-16T11:35:24;26.57;;;25.17;;
1975;SDS011;988;48.016;7.800;2022-10-16T11:37:58;25.43;;;23.83;;
1975;SDS011;988;48.016;7.800;2022-10-16T11:40:31;24.30;;;23.10;;
1975;SDS011;988;48.016;7.800;2022-10-16T11:43:02;24.80;;;23.50;;
1975;SDS011;988;48.016;7.800;2022-10-16T11:45:39;33.33;;;31.47;;
1975;SDS011;988;48.016;7.800;2022-10-16T11:54:24;37.50;;;35.60;;
1975;SDS011;988;48.016;7.800;2022-10-16T11:56:57;37.10;;;35.10;;
1975;SDS011;988;48.016;7.800;2022-10-16T12:02:20;36.07;;;34.17;;
1975;SDS011;988;48.016;7.800;2022-10-16T12:07:37;32.60;;;30.90;;
1975;SDS011;988;48.016;7.800;2022-10-16T12:10:31;28.90;;;27.20;;
1975;SDS011;988;48.016;7.800;2022-10-16T12:12:57;26.77;;;25.17;;
1975;SDS011;988;48.016;7.800;2022-10-16T12:15:26;26.97;;;25.23;;
1975;SDS011;988;48.016;7.800;2022-10-16T12:17:54;26.73;;;25.10;;
1975;SDS011;988;48.016;7.800;2022-10-16T12:20:30;24.97;;;23.67;;
1975;SDS011;988;48.016;7.800;2022-10-16T12:25:34;28.30;;;26.80;;
1975;SDS011;988;48.016;7.800;2022-10-16T12:30:41;25.33;;;24.03;;
1975;SDS011;988;48.016;7.800;2022-10-16T12:35:53;25.50;;;24.10;;
1975;SDS011;988;48.016;7.800;2022-10-16T12:38:31;26.80;;;25.23;;
1975;SDS011;988;48.016;7.800;2022-10-16T12:43:54;26.40;;;25.00;;
1975;SDS011;988;48.016;7.800;2022-10-16T12:46:26;26.37;;;24.87;;
1975;SDS011;988;48.016;7.800;2022-10-16T12:49:51;27.27;;;25.53;;
1975;SDS011;988;48.016;7.800;2022-10-16T12:52:03;26.77;;;25.10;;
1975;SDS011;988;48.016;7.800;2022-10-16T12:59:45;26.53;;;25.03;;
1975;SDS011;988;48.016;7.800;2022-10-16T13:05:35;27.73;;;25.60;;
1975;SDS011;988;48.016;7.800;2022-10-16T13:19:29;28.03;;;26.53;;
1975;SDS011;988;48.016;7.800;2022-10-16T13:30:21;30.10;;;28.30;;
1975;SDS011;988;48.016;7.800;2022-10-16T13:32:56;27.77;;;26.27;;
1975;SDS011;988;48.016;7.800;2022-10-16T13:35:34;29.47;;;27.77;;
1975;SDS011;988;48.016;7.800;2022-10-16T13:38:20;28.00;;;26.17;;
1975;SDS011;988;48.016;7.800;2022-10-16T13:40:48;29.93;;;28.10;;
1975;SDS011;988;48.016;7.800;2022-10-16T13:43:37;26.73;;;25.30;;
1975;SDS011;988;48.016;7.800;2022-10-16T13:46:10;29.23;;;27.33;;
1975;SDS011;988;48.016;7.800;2022-10-16T13:48:40;30.20;;;28.17;;
1975;SDS011;988;48.016;7.800;2022-10-16T13:51:11;28.47;;;26.87;;
1975;SDS011;988;48.016;7.800;2022-10-16T13:53:37;29.00;;;27.40;;
1975;SDS011;988;48.016;7.800;2022-10-16T13:56:04;29.63;;;27.93;;
1975;SDS011;988;48.016;7.800;2022-10-16T13:58:32;29.00;;;27.37;;
1975;SDS011;988;48.016;7.800;2022-10-16T14:00:58;27.93;;;26.23;;
1975;SDS011;988;48.016;7.800;2022-10-16T14:03:26;27.13;;;25.63;;
1975;SDS011;988;48.016;7.800;2022-10-16T14:05:54;26.50;;;25.10;;
1975;SDS011;988;48.016;7.800;2022-10-16T14:08:23;25.70;;;24.20;;
1975;SDS011;988;48.016;7.800;2022-10-16T14:10:51;27.37;;;25.87;;
1975;SDS011;988;48.016;7.800;2022-10-16T14:13:44;25.43;;;24.03;;
1975;SDS011;988;48.016;7.800;2022-10-16T14:16:15;27.70;;;25.77;;
1975;SDS011;988;48.016;7.800;2022-10-16T14:18:45;27.30;;;25.40;;
1975;SDS011;988;48.016;7.800;2022-10-16T14:21:16;26.70;;;25.00;;
1975;SDS011;988;48.016;7.800;2022-10-16T14:23:43;26.97;;;25.00;;
1975;SDS011;988;48.016;7.800;2022-10-16T14:28:34;26.30;;;24.80;;
1975;SDS011;988;48.016;7.800;2022-10-16T14:31:01;26.03;;;24.43;;
1975;SDS011;988;48.016;7.800;2022-10-16T14:33:45;26.53;;;25.03;;
1975;SDS011;988;48.016;7.800;2022-10-16T14:38:38;25.87;;;24.37;;
1975;SDS011;988;48.016;7.800;2022-10-16T14:41:06;26.87;;;25.10;;
1975;SDS011;988;48.016;7.800;2022-10-16T14:46:01;25.50;;;24.00;;
1975;SDS011;988;48.016;7.800;2022-10-16T14:48:39;26.13;;;24.40;;
1975;SDS011;988;48.016;7.800;2022-10-16T14:51:08;26.27;;;24.47;;
1975;SDS011;988;48.016;7.800;2022-10-16T14:53:39;26.80;;;25.10;;
1975;SDS011;988;48.016;7.800;2022-10-16T14:56:06;25.17;;;23.70;;
1975;SDS011;988;48.016;7.800;2022-10-16T14:58:50;25.73;;;24.13;;
1975;SDS011;988;48.016;7.800;2022-10-16T15:01:17;25.73;;;24.33;;
1975;SDS011;988;48.016;7.800;2022-10-16T15:03:43;25.80;;;24.40;;
1975;SDS011;988;48.016;7.800;2022-10-16T15:06:13;26.60;;;24.70;;
1975;SDS011;988;48.016;7.800;2022-10-16T15:08:40;25.27;;;23.50;;
1975;SDS011;988;48.016;7.800;2022-10-16T15:11:13;25.33;;;23.83;;
1975;SDS011;988;48.016;7.800;2022-10-16T15:13:40;26.50;;;25.00;;
1975;SDS011;988;48.016;7.800;2022-10-16T15:16:11;27.33;;;25.73;;
1975;SDS011;988;48.016;7.800;2022-10-16T15:18:38;25.73;;;24.10;;
1975;SDS011;988;48.016;7.800;2022-10-16T15:21:04;26.60;;;24.67;;
1975;SDS011;988;48.016;7.800;2022-10-16T15:23:30;26.27;;;24.13;;
1975;SDS011;988;48.016;7.800;2022-10-16T15:25:56;25.80;;;24.20;;
1975;SDS011;988;48.016;7.800;2022-10-16T15:28:22;25.30;;;23.80;;
1975;SDS011;988;48.016;7.800;2022-10-16T15:30:52;25.80;;;23.77;;
1975;SDS011;988;48.016;7.800;2022-10-16T15:33:23;25.17;;;23.60;;
1975;SDS011;988;48.016;7.800;2022-10-16T15:35:53;24.37;;;23.07;;
1975;SDS011;988;48.016;7.800;2022-10-16T15:38:19;23.50;;;22.03;;
1975;SDS011;988;48.016;7.800;2022-10-16T15:40:47;24.27;;;22.80;;
1975;SDS011;988;48.016;7.800;2022-10-16T15:43:13;24.30;;;22.50;;
1975;SDS011;988;48.016;7.800;2022-10-16T15:45:39;25.50;;;23.53;;
1975;SDS011;988;48.016;7.800;2022-10-16T15:48:05;24.30;;;22.90;;
1975;SDS011;988;48.016;7.800;2022-10-16T15:50:32;24.50;;;23.03;;
1975;SDS011;988;48.016;7.800;2022-10-16T15:52:58;24.83;;;22.87;;
1975;SDS011;988;48.016;7.800;2022-10-16T15:55:24;23.87;;;22.17;;
1975;SDS011;988;48.016;7.800;2022-10-16T15:57:49;24.23;;;22.63;;
1975;SDS011;988;48.016;7.800;2022-10-16T16:00:17;24.30;;;22.70;;
1975;SDS011;988;48.016;7.800;2022-10-16T16:02:49;24.10;;;22.47;;
1975;SDS011;988;48.016;7.800;2022-10-16T16:05:19;25.07;;;23.17;;
1975;SDS011;988;48.016;7.800;2022-10-16T16:07:45;23.20;;;21.80;;
1975;SDS011;988;48.016;7.800;2022-10-16T16:10:11;24.50;;;22.80;;
1975;SDS011;988;48.016;7.800;2022-10-16T16:12:37;23.83;;;22.23;;
1975;SDS011;988;48.016;7.800;2022-10-16T16:15:03;23.60;;;21.73;;
1975;SDS011;988;48.016;7.800;2022-10-16T16:17:31;22.63;;;21.33;;
1975;SDS011;988;48.016;7.800;2022-10-16T16:19:57;22.80;;;21.60;;
1975;SDS011;988;48.016;7.800;2022-10-16T16:22:23;23.50;;;21.90;;
1975;SDS011;988;48.016;7.800;2022-10-16T16:24:49;23.57;;;22.30;;
1975;SDS011;988;48.016;7.800;2022-10-16T16:27:14;24.20;;;22.70;;
1975;SDS011;988;48.016;7.800;2022-10-16T16:29:40;23.13;;;21.63;;
1975;SDS011;988;48.016;7.800;2022-10-16T16:32:05;23.93;;;22.27;;
1975;SDS011;988;48.016;7.800;2022-10-16T16:34:31;27.73;;;25.00;;
1975;SDS011;988;48.016;7.800;2022-10-16T16:36:57;23.50;;;21.70;;
1975;SDS011;988;48.016;7.800;2022-10-16T16:39:22;23.57;;;21.87;;
1975;SDS011;988;48.016;7.800;2022-10-16T16:41:48;23.37;;;21.57;;
1975;SDS011;988;48.016;7.800;2022-10-16T16:44:15;23.90;;;22.20;;
1975;SDS011;988;48.016;7.800;2022-10-16T16:46:41;22.77;;;21.33;;
1975;SDS011;988;48.016;7.800;2022-10-16T16:49:11;22.60;;;21.00;;
1975;SDS011;988;48.016;7.800;2022-10-16T16:51:38;21.23;;;19.60;;
1975;SDS011;988;48.016;7.800;2022-10-16T16:54:04;22.30;;;20.80;;
1975;SDS011;988;48.016;7.800;2022-10-16T16:56:31;21.17;;;19.67;;
1975;SDS011;988;48.016;7.800;2022-10-16T16:58:57;22.07;;;20.77;;
1975;SDS011;988;48.016;7.800;2022-10-16T17:01:24;21.80;;;20.10;;
1975;SDS011;988;48.016;7.800;2022-10-16T17:03:51;21.97;;;20.60;;
1975;SDS011;988;48.016;7.800;2022-10-16T17:06:19;22.40;;;20.70;;
1975;SDS011;988;48.016;7.800;2022-10-16T17:08:45;21.60;;;20.30;;
1975;SDS011;988;48.016;7.800;2022-10-16T17:11:12;21.70;;;20.30;;
1975;SDS011;988;48.016;7.800;2022-10-16T17:13:43;22.60;;;21.00;;
1975;SDS011;988;48.016;7.800;2022-10-16T17:16:09;22.70;;;21.00;;
1975;SDS011;988;48.016;7.800;2022-10-16T17:18:35;22.23;;;20.60;;
1975;SDS011;988;48.016;7.800;2022-10-16T17:21:02;21.40;;;20.00;;
1975;SDS011;988;48.016;7.800;2022-10-16T17:23:29;21.47;;;20.07;;
1975;SDS011;988;48.016;7.800;2022-10-16T17:25:55;20.87;;;19.67;;
1975;SDS011;988;48.016;7.800;2022-10-16T17:28:21;20.60;;;19.30;;
1975;SDS011;988;48.016;7.800;2022-10-16T17:30:47;20.40;;;19.10;;
1975;SDS011;988;48.016;7.800;2022-10-16T17:33:12;21.37;;;19.77;;
1975;SDS011;988;48.016;7.800;2022-10-16T17:35:39;20.93;;;19.73;;